EWG3MK EDDG-EDDN
Flight info
| Callsign | EWG3MK |
|---|---|
| Flight time | N/A |
| Altitude | 23000 |
| Route | DOMEG3Z DOMEG Z841 GMH Q603 TESGA Z719 ETOLU Z723 KOMIB T193 ERTES T194 DODAS DODAS1V |
| Aircraft | A20N/M-SDE2E3FGHIRWXY/LB1 |
Departure
| Time | 2026-04-10 14:31 |
|---|---|
| Airport | Münster Osnabrück Airport (EDDG) |
Arrival
| Time | N/A |
|---|---|
| Airport | Nuremberg Airport (EDDN) |
| Time | Latitude | Longitude | Altitude | Speed | Heading |
|---|---|---|---|---|---|
| 2026-04-10 14:15 | 52.13121 | 7.69203 | 164 ft | 0 kts | 198° |
| 2026-04-10 14:27 | 52.13120 | 7.69200 | 164 ft | 0 kts | 216° |
| 2026-04-10 14:27 | 52.13122 | 7.69190 | 164 ft | 1 kts | 278° |
| 2026-04-10 14:27 | 52.13135 | 7.69179 | 164 ft | 7 kts | 326° |
| 2026-04-10 14:28 | 52.13167 | 7.69067 | 164 ft | 14 kts | 259° |
| 2026-04-10 14:28 | 52.13207 | 7.68924 | 164 ft | 17 kts | 338° |
| 2026-04-10 14:28 | 52.13330 | 7.68861 | 164 ft | 20 kts | 358° |
| 2026-04-10 14:28 | 52.13409 | 7.69024 | 164 ft | 21 kts | 68° |
| 2026-04-10 14:29 | 52.13455 | 7.69270 | 163 ft | 24 kts | 69° |
| 2026-04-10 14:29 | 52.13514 | 7.69535 | 163 ft | 26 kts | 71° |
| 2026-04-10 14:29 | 52.13576 | 7.69825 | 163 ft | 28 kts | 69° |
| 2026-04-10 14:29 | 52.13689 | 7.70019 | 161 ft | 18 kts | 3° |
| 2026-04-10 14:30 | 52.13773 | 7.69970 | 164 ft | 6 kts | 279° |
| 2026-04-10 14:30 | 52.13761 | 7.69876 | 165 ft | 11 kts | 248° |
| 2026-04-10 14:30 | 52.13720 | 7.69683 | 166 ft | 38 kts | 250° |
| 2026-04-10 14:30 | 52.13536 | 7.68813 | 165 ft | 122 kts | 251° |
| 2026-04-10 14:31 | 52.13195 | 7.67204 | 350 ft | 171 kts | 251° |
| 2026-04-10 14:31 | 52.12773 | 7.65219 | 836 ft | 193 kts | 251° |
| 2026-04-10 14:31 | 52.12347 | 7.63244 | 1306 ft | 175 kts | 252° |
| 2026-04-10 14:31 | 52.11931 | 7.61349 | 1915 ft | 183 kts | 252° |
| 2026-04-10 14:32 | 52.11502 | 7.59384 | 2638 ft | 186 kts | 252° |
| 2026-04-10 14:32 | 52.11061 | 7.57280 | 3251 ft | 206 kts | 252° |
| 2026-04-10 14:32 | 52.10528 | 7.54992 | 3919 ft | 228 kts | 242° |
| 2026-04-10 14:32 | 52.09409 | 7.53009 | 4549 ft | 253 kts | 214° |
| 2026-04-10 14:33 | 52.07693 | 7.52099 | 5496 ft | 265 kts | 189° |
| 2026-04-10 14:33 | 52.05834 | 7.51799 | 6484 ft | 272 kts | 187° |
| 2026-04-10 14:33 | 52.03926 | 7.51514 | 7419 ft | 278 kts | 187° |
| 2026-04-10 14:33 | 52.01995 | 7.51218 | 8371 ft | 285 kts | 188° |
| 2026-04-10 14:34 | 51.99983 | 7.51120 | 9296 ft | 295 kts | 179° |
| 2026-04-10 14:34 | 51.97918 | 7.51590 | 10209 ft | 304 kts | 173° |
| 2026-04-10 14:34 | 51.95781 | 7.52183 | 10788 ft | 322 kts | 173° |
| 2026-04-10 14:34 | 51.93489 | 7.52797 | 11205 ft | 344 kts | 174° |
| 2026-04-10 14:35 | 51.91052 | 7.53444 | 11682 ft | 363 kts | 174° |
| 2026-04-10 14:35 | 51.88476 | 7.54124 | 11989 ft | 384 kts | 174° |
| 2026-04-10 14:35 | 51.85801 | 7.54832 | 12666 ft | 392 kts | 174° |
| 2026-04-10 14:35 | 51.83045 | 7.55562 | 13002 ft | 410 kts | 174° |
| 2026-04-10 14:36 | 51.80184 | 7.56317 | 13586 ft | 418 kts | 174° |
| 2026-04-10 14:36 | 51.77300 | 7.57080 | 14314 ft | 421 kts | 174° |
| 2026-04-10 14:36 | 51.74423 | 7.57838 | 14927 ft | 426 kts | 174° |
| 2026-04-10 14:36 | 51.71470 | 7.58688 | 15546 ft | 433 kts | 171° |
| 2026-04-10 14:37 | 51.68546 | 7.60069 | 16137 ft | 442 kts | 163° |
| 2026-04-10 14:37 | 51.65614 | 7.61760 | 16726 ft | 447 kts | 163° |
| 2026-04-10 14:37 | 51.62664 | 7.63461 | 17325 ft | 452 kts | 163° |
| 2026-04-10 14:37 | 51.59673 | 7.65175 | 17892 ft | 458 kts | 164° |
| 2026-04-10 14:38 | 51.56702 | 7.66880 | 18456 ft | 463 kts | 162° |
| 2026-04-10 14:38 | 51.53793 | 7.69234 | 18884 ft | 476 kts | 150° |
| 2026-04-10 14:38 | 51.51165 | 7.72642 | 19312 ft | 487 kts | 136° |
| 2026-04-10 14:38 | 51.48961 | 7.76844 | 19732 ft | 495 kts | 128° |
| 2026-04-10 14:39 | 51.46918 | 7.81376 | 19987 ft | 506 kts | 126° |
| 2026-04-10 14:39 | 51.44955 | 7.85686 | 20300 ft | 512 kts | 127° |
| 2026-04-10 14:39 | 51.42774 | 7.90259 | 20699 ft | 518 kts | 129° |
| 2026-04-10 14:39 | 51.40515 | 7.94810 | 21079 ft | 524 kts | 130° |
| 2026-04-10 14:40 | 51.38196 | 7.99368 | 21482 ft | 529 kts | 130° |
| 2026-04-10 14:40 | 51.35846 | 8.03938 | 21825 ft | 535 kts | 130° |
| 2026-04-10 14:40 | 51.33458 | 8.08558 | 22206 ft | 540 kts | 130° |
| 2026-04-10 14:40 | 51.31134 | 8.13047 | 22545 ft | 545 kts | 130° |
| 2026-04-10 14:41 | 51.28618 | 8.17902 | 22910 ft | 551 kts | 130° |
| 2026-04-10 14:41 | 51.26194 | 8.22574 | 23068 ft | 553 kts | 130° |
| 2026-04-10 14:41 | 51.23665 | 8.27440 | 23140 ft | 554 kts | 130° |
| 2026-04-10 14:41 | 51.21218 | 8.32139 | 23132 ft | 554 kts | 130° |
| 2026-04-10 14:42 | 51.18741 | 8.36887 | 23133 ft | 554 kts | 130° |
| 2026-04-10 14:42 | 51.16301 | 8.41557 | 23130 ft | 555 kts | 130° |
| 2026-04-10 14:42 | 51.13826 | 8.46284 | 23125 ft | 555 kts | 130° |
| 2026-04-10 14:42 | 51.11364 | 8.50978 | 23128 ft | 554 kts | 130° |
| 2026-04-10 14:43 | 51.08878 | 8.55711 | 23124 ft | 554 kts | 130° |
| 2026-04-10 14:43 | 51.06437 | 8.60349 | 23125 ft | 554 kts | 130° |
| 2026-04-10 14:43 | 51.03958 | 8.65049 | 23124 ft | 554 kts | 130° |
| 2026-04-10 14:43 | 51.01476 | 8.69749 | 23127 ft | 554 kts | 130° |
| 2026-04-10 14:44 | 50.98987 | 8.74452 | 23125 ft | 554 kts | 130° |
| 2026-04-10 14:44 | 50.96504 | 8.79136 | 23123 ft | 554 kts | 130° |
| 2026-04-10 14:44 | 50.93985 | 8.83879 | 23122 ft | 554 kts | 130° |
| 2026-04-10 14:44 | 50.91523 | 8.88506 | 23124 ft | 554 kts | 130° |
| 2026-04-10 14:45 | 50.89036 | 8.93171 | 23123 ft | 554 kts | 130° |
| 2026-04-10 14:45 | 50.86545 | 8.97834 | 23126 ft | 554 kts | 130° |
| 2026-04-10 14:45 | 50.84045 | 9.02507 | 23129 ft | 554 kts | 131° |
| 2026-04-10 14:45 | 50.81541 | 9.07179 | 23125 ft | 554 kts | 130° |
| 2026-04-10 14:46 | 50.79035 | 9.11847 | 23115 ft | 554 kts | 131° |
| 2026-04-10 14:46 | 50.76575 | 9.16421 | 23122 ft | 554 kts | 131° |
| 2026-04-10 14:46 | 50.74077 | 9.21058 | 23120 ft | 554 kts | 131° |
| 2026-04-10 14:46 | 50.71566 | 9.25709 | 23118 ft | 554 kts | 131° |
| 2026-04-10 14:47 | 50.69061 | 9.30341 | 23116 ft | 554 kts | 131° |
| 2026-04-10 14:47 | 50.66596 | 9.34891 | 23115 ft | 554 kts | 131° |
| 2026-04-10 14:47 | 50.64115 | 9.39462 | 23114 ft | 554 kts | 131° |
| 2026-04-10 14:47 | 50.61598 | 9.44091 | 23118 ft | 554 kts | 131° |
| 2026-04-10 14:48 | 50.59086 | 9.48703 | 23118 ft | 554 kts | 131° |
| 2026-04-10 14:48 | 50.56575 | 9.53304 | 23118 ft | 553 kts | 131° |
| 2026-04-10 14:48 | 50.54065 | 9.57898 | 23116 ft | 553 kts | 131° |
| 2026-04-10 14:48 | 50.51542 | 9.62503 | 23113 ft | 553 kts | 131° |
| 2026-04-10 14:49 | 50.49015 | 9.67111 | 23115 ft | 553 kts | 131° |
| 2026-04-10 14:49 | 50.46527 | 9.71638 | 23120 ft | 554 kts | 131° |
| 2026-04-10 14:49 | 50.44004 | 9.76222 | 23123 ft | 553 kts | 131° |
| 2026-04-10 14:49 | 50.41476 | 9.80806 | 23119 ft | 554 kts | 131° |
| 2026-04-10 14:50 | 50.38948 | 9.85382 | 23120 ft | 554 kts | 131° |
| 2026-04-10 14:50 | 50.36419 | 9.89951 | 23119 ft | 554 kts | 131° |
| 2026-04-10 14:50 | 50.33921 | 9.94458 | 23113 ft | 553 kts | 131° |
| 2026-04-10 14:50 | 50.31488 | 9.98838 | 23117 ft | 554 kts | 131° |
| 2026-04-10 14:51 | 50.28962 | 10.03379 | 23120 ft | 554 kts | 131° |
| 2026-04-10 14:51 | 50.26423 | 10.07894 | 23115 ft | 553 kts | 133° |
| 2026-04-10 14:51 | 50.23611 | 10.12035 | 23120 ft | 552 kts | 141° |
| 2026-04-10 14:51 | 50.20659 | 10.15894 | 23116 ft | 553 kts | 141° |
| 2026-04-10 14:52 | 50.17685 | 10.19743 | 23118 ft | 553 kts | 142° |
| 2026-04-10 14:52 | 50.14709 | 10.23555 | 23117 ft | 553 kts | 142° |
| 2026-04-10 14:52 | 50.11718 | 10.27357 | 23112 ft | 553 kts | 142° |
| 2026-04-10 14:52 | 50.09629 | 10.30002 | 23119 ft | 553 kts | 142° |
| 2026-04-10 14:53 | 50.06667 | 10.33745 | 23115 ft | 553 kts | 142° |
| 2026-04-10 14:53 | 50.03678 | 10.37512 | 23114 ft | 553 kts | 142° |
| 2026-04-10 14:53 | 50.00646 | 10.41328 | 23115 ft | 553 kts | 142° |
| 2026-04-10 14:53 | 49.97658 | 10.45082 | 23116 ft | 553 kts | 142° |
| 2026-04-10 14:54 | 49.94668 | 10.48834 | 23119 ft | 553 kts | 142° |
| 2026-04-10 14:54 | 49.91700 | 10.52552 | 23117 ft | 553 kts | 142° |
| 2026-04-10 14:54 | 49.88705 | 10.56297 | 23113 ft | 553 kts | 142° |
| 2026-04-10 14:54 | 49.85714 | 10.60030 | 23116 ft | 553 kts | 142° |
| 2026-04-10 14:55 | 49.82717 | 10.63766 | 23111 ft | 549 kts | 142° |
| 2026-04-10 14:55 | 49.79799 | 10.67402 | 23115 ft | 526 kts | 142° |
| 2026-04-10 14:55 | 49.76996 | 10.70895 | 23108 ft | 503 kts | 141° |
| 2026-04-10 14:55 | 49.74722 | 10.74396 | 23108 ft | 484 kts | 128° |
| 2026-04-10 14:56 | 49.72941 | 10.78686 | 23107 ft | 469 kts | 112° |
| 2026-04-10 14:56 | 49.71880 | 10.83462 | 23106 ft | 468 kts | 96° |
| 2026-04-10 14:56 | 49.71434 | 10.88409 | 23103 ft | 461 kts | 89° |
| 2026-04-10 14:56 | 49.71166 | 10.93293 | 23104 ft | 460 kts | 88° |
| 2026-04-10 14:57 | 49.70861 | 10.98234 | 23099 ft | 461 kts | 90° |
| 2026-04-10 14:57 | 49.70617 | 11.03158 | 23100 ft | 458 kts | 85° |
| 2026-04-10 14:57 | 49.70252 | 11.08063 | 23100 ft | 466 kts | 98° |
| 2026-04-10 14:57 | 49.69162 | 11.12780 | 23098 ft | 474 kts | 114° |
| 2026-04-10 14:58 | 49.67330 | 11.17113 | 23100 ft | 478 kts | 130° |
| 2026-04-10 14:58 | 49.64920 | 11.20635 | 23099 ft | 477 kts | 145° |
| 2026-04-10 14:58 | 49.62057 | 11.23186 | 23098 ft | 472 kts | 161° |
| 2026-04-10 14:58 | 49.58978 | 11.24595 | 23092 ft | 463 kts | 176° |
| 2026-04-10 14:59 | 49.55809 | 11.24866 | 22883 ft | 449 kts | 192° |
| 2026-04-10 14:59 | 49.52769 | 11.23962 | 22603 ft | 428 kts | 208° |
| 2026-04-10 14:59 | 49.50173 | 11.22024 | 22339 ft | 407 kts | 224° |
| 2026-04-10 14:59 | 49.48127 | 11.19228 | 22076 ft | 386 kts | 240° |
| 2026-04-10 15:00 | 49.46742 | 11.15852 | 21811 ft | 369 kts | 253° |
| 2026-04-10 15:00 | 49.45793 | 11.12181 | 21546 ft | 360 kts | 260° |
| 2026-04-10 15:00 | 49.45165 | 11.08545 | 21290 ft | 353 kts | 266° |
| 2026-04-10 15:00 | 49.44845 | 11.04852 | 21030 ft | 346 kts | 273° |
| 2026-04-10 15:01 | 49.44892 | 11.01196 | 20767 ft | 339 kts | 281° |
| 2026-04-10 15:01 | 49.45337 | 10.97618 | 20520 ft | 334 kts | 290° |
| 2026-04-10 15:01 | 49.46149 | 10.94344 | 20284 ft | 331 kts | 298° |
| 2026-04-10 15:01 | 49.47334 | 10.91309 | 20025 ft | 330 kts | 307° |
| 2026-04-10 15:02 | 49.48839 | 10.88658 | 19776 ft | 331 kts | 315° |
| 2026-04-10 15:02 | 49.50647 | 10.86430 | 19544 ft | 333 kts | 324° |
| 2026-04-10 15:02 | 49.52694 | 10.84724 | 19294 ft | 337 kts | 333° |
| 2026-04-10 15:02 | 49.54827 | 10.83215 | 18834 ft | 337 kts | 326° |
| 2026-04-10 15:03 | 49.56783 | 10.81173 | 17661 ft | 345 kts | 320° |
| 2026-04-10 15:03 | 49.58703 | 10.78880 | 16462 ft | 348 kts | 319° |
| 2026-04-10 15:03 | 49.60601 | 10.76601 | 15479 ft | 344 kts | 319° |
| 2026-04-10 15:03 | 49.62255 | 10.74006 | 14498 ft | 338 kts | 305° |
| 2026-04-10 15:04 | 49.63373 | 10.70840 | 13519 ft | 335 kts | 291° |
| 2026-04-10 15:04 | 49.63890 | 10.67389 | 12525 ft | 333 kts | 279° |
| 2026-04-10 15:04 | 49.64207 | 10.63873 | 11552 ft | 330 kts | 280° |
| 2026-04-10 15:04 | 49.64470 | 10.60313 | 10599 ft | 329 kts | 272° |
| 2026-04-10 15:05 | 49.62728 | 10.54175 | 9784 ft | 311 kts | 227° |
| 2026-04-10 15:05 | 49.60950 | 10.52422 | 9582 ft | 301 kts | 206° |
| 2026-04-10 15:05 | 49.58920 | 10.51710 | 9160 ft | 297 kts | 190° |
| 2026-04-10 15:06 | 49.56855 | 10.52045 | 8568 ft | 301 kts | 164° |
| 2026-04-10 15:06 | 49.55059 | 10.53683 | 7964 ft | 303 kts | 137° |
| 2026-04-10 15:06 | 49.53878 | 10.56316 | 7421 ft | 299 kts | 111° |
| 2026-04-10 15:06 | 49.53511 | 10.59386 | 6874 ft | 293 kts | 89° |
| 2026-04-10 15:07 | 49.53587 | 10.62485 | 6542 ft | 281 kts | 85° |
| 2026-04-10 15:07 | 49.53644 | 10.65416 | 6227 ft | 270 kts | 89° |
| 2026-04-10 15:07 | 49.53577 | 10.68298 | 5748 ft | 267 kts | 93° |
| 2026-04-10 15:07 | 49.53405 | 10.71101 | 5297 ft | 255 kts | 95° |
| 2026-04-10 15:08 | 49.53186 | 10.73725 | 4763 ft | 238 kts | 96° |
| 2026-04-10 15:08 | 49.52961 | 10.76227 | 4630 ft | 245 kts | 97° |
| 2026-04-10 15:08 | 49.52707 | 10.78841 | 4509 ft | 246 kts | 97° |
| 2026-04-10 15:08 | 49.52456 | 10.81396 | 4279 ft | 237 kts | 97° |
| 2026-04-10 15:09 | 49.52218 | 10.83819 | 3945 ft | 221 kts | 97° |
| 2026-04-10 15:09 | 49.51994 | 10.86096 | 3675 ft | 206 kts | 97° |
| 2026-04-10 15:09 | 49.51791 | 10.88175 | 3402 ft | 189 kts | 97° |
| 2026-04-10 15:09 | 49.51603 | 10.90068 | 3173 ft | 167 kts | 96° |
| 2026-04-10 15:10 | 49.51439 | 10.91765 | 2900 ft | 154 kts | 96° |
| 2026-04-10 15:10 | 49.51294 | 10.93412 | 2388 ft | 161 kts | 95° |
| 2026-04-10 15:10 | 49.51152 | 10.95086 | 2031 ft | 155 kts | 95° |
| 2026-04-10 15:10 | 49.51007 | 10.96687 | 1808 ft | 146 kts | 96° |
| 2026-04-10 15:11 | 49.50854 | 10.98208 | 1647 ft | 142 kts | 97° |
| 2026-04-10 15:11 | 49.50683 | 10.99691 | 1488 ft | 139 kts | 97° |
| 2026-04-10 15:11 | 49.50526 | 11.01149 | 1374 ft | 137 kts | 97° |
| 2026-04-10 15:11 | 49.50382 | 11.02578 | 1282 ft | 136 kts | 96° |
| 2026-04-10 15:12 | 49.50221 | 11.04262 | 1282 ft | 175 kts | 96° |
| 2026-04-10 15:12 | 49.50035 | 11.06280 | 1482 ft | 204 kts | 96° |
| 2026-04-10 15:12 | 49.49827 | 11.08607 | 1719 ft | 241 kts | 96° |
| 2026-04-10 15:12 | 49.49718 | 11.11346 | 2256 ft | 274 kts | 90° |
| 2026-04-10 15:13 | 49.49731 | 11.14440 | 2397 ft | 290 kts | 86° |
| 2026-04-10 15:13 | 49.49871 | 11.17433 | 2519 ft | 271 kts | 82° |
| 2026-04-10 15:13 | 49.50079 | 11.20331 | 2433 ft | 278 kts | 86° |
| 2026-04-10 15:13 | 49.50001 | 11.23322 | 2036 ft | 281 kts | 95° |
| 2026-04-10 15:14 | 49.49820 | 11.26279 | 1843 ft | 270 kts | 91° |
| 2026-04-10 15:14 | 49.49912 | 11.29095 | 2316 ft | 268 kts | 80° |
| 2026-04-10 15:14 | 49.50345 | 11.31915 | 2772 ft | 271 kts | 70° |
| 2026-04-10 15:14 | 49.51087 | 11.34546 | 3231 ft | 271 kts | 59° |
| 2026-04-10 15:15 | 49.52127 | 11.36955 | 3687 ft | 270 kts | 49° |
| 2026-04-10 15:15 | 49.53405 | 11.39097 | 4193 ft | 272 kts | 41° |
| 2026-04-10 15:15 | 49.54876 | 11.40941 | 4701 ft | 273 kts | 33° |
| 2026-04-10 15:15 | 49.56475 | 11.42565 | 5365 ft | 277 kts | 32° |
| 2026-04-10 15:16 | 49.58066 | 11.44319 | 6235 ft | 289 kts | 34° |
| 2026-04-10 15:16 | 49.59709 | 11.46187 | 7248 ft | 294 kts | 33° |
| 2026-04-10 15:16 | 49.61365 | 11.48072 | 8331 ft | 297 kts | 32° |
| 2026-04-10 15:16 | 49.63054 | 11.49973 | 9405 ft | 301 kts | 31° |
| 2026-04-10 15:17 | 49.64761 | 11.51877 | 10455 ft | 305 kts | 30° |
| 2026-04-10 15:17 | 49.66495 | 11.53802 | 11358 ft | 310 kts | 30° |
| 2026-04-10 15:17 | 49.68233 | 11.55729 | 12247 ft | 315 kts | 30° |
| 2026-04-10 15:17 | 49.70042 | 11.57737 | 13171 ft | 320 kts | 29° |
| 2026-04-10 15:18 | 49.71865 | 11.59761 | 14039 ft | 326 kts | 29° |
| 2026-04-10 15:18 | 49.73725 | 11.61829 | 14896 ft | 329 kts | 29° |
| 2026-04-10 15:18 | 49.75596 | 11.63913 | 15744 ft | 333 kts | 29° |
| 2026-04-10 15:18 | 49.77491 | 11.66025 | 16567 ft | 337 kts | 29° |
| 2026-04-10 15:19 | 49.79409 | 11.68164 | 17375 ft | 342 kts | 29° |
| 2026-04-10 15:19 | 49.81349 | 11.70330 | 18187 ft | 346 kts | 29° |
| 2026-04-10 15:19 | 49.83310 | 11.72523 | 18925 ft | 349 kts | 28° |
| 2026-04-10 15:19 | 49.85285 | 11.74736 | 19714 ft | 350 kts | 28° |
| 2026-04-10 15:20 | 49.87261 | 11.76954 | 20464 ft | 352 kts | 27° |
| 2026-04-10 15:20 | 49.89255 | 11.79193 | 21211 ft | 353 kts | 27° |
| 2026-04-10 15:20 | 49.91247 | 11.81430 | 21923 ft | 356 kts | 26° |
| 2026-04-10 15:20 | 49.93262 | 11.83696 | 22647 ft | 358 kts | 26° |
| 2026-04-10 15:21 | 49.95260 | 11.85946 | 23374 ft | 360 kts | 25° |
| 2026-04-10 15:21 | 49.97300 | 11.88243 | 24019 ft | 360 kts | 24° |
| 2026-04-10 15:21 | 49.99243 | 11.90455 | 24384 ft | 334 kts | 26° |
| 2026-04-10 15:21 | 50.00948 | 11.92785 | 24681 ft | 317 kts | 33° |
| 2026-04-10 15:22 | 50.02293 | 11.95432 | 24881 ft | 310 kts | 45° |
| 2026-04-10 15:22 | 50.03163 | 11.98491 | 24947 ft | 311 kts | 62° |
| 2026-04-10 15:22 | 50.03468 | 12.01857 | 24762 ft | 320 kts | 80° |
| 2026-04-10 15:22 | 50.03168 | 12.05346 | 24438 ft | 330 kts | 99° |
| 2026-04-10 15:23 | 50.02256 | 12.08657 | 24087 ft | 335 kts | 119° |
| 2026-04-10 15:23 | 50.00840 | 12.11475 | 23731 ft | 335 kts | 137° |
| 2026-04-10 15:23 | 49.99009 | 12.13647 | 23308 ft | 328 kts | 156° |
| 2026-04-10 15:23 | 49.96950 | 12.14990 | 22909 ft | 315 kts | 174° |
| 2026-04-10 15:24 | 49.94842 | 12.15460 | 22532 ft | 297 kts | 192° |
| 2026-04-10 15:24 | 49.93485 | 12.15288 | 22261 ft | 283 kts | 205° |
| 2026-04-10 15:24 | 49.91706 | 12.14400 | 21831 ft | 263 kts | 222° |
| 2026-04-10 15:24 | 49.90264 | 12.12848 | 21368 ft | 243 kts | 239° |
| 2026-04-10 15:25 | 49.89299 | 12.10840 | 20945 ft | 223 kts | 257° |
| 2026-04-10 15:25 | 49.88883 | 12.08639 | 20524 ft | 206 kts | 275° |
| 2026-04-10 15:25 | 49.89009 | 12.06504 | 20108 ft | 196 kts | 292° |
| 2026-04-10 15:25 | 49.89638 | 12.04652 | 19665 ft | 194 kts | 310° |
| 2026-04-10 15:26 | 49.90689 | 12.03313 | 19200 ft | 200 kts | 329° |
| 2026-04-10 15:26 | 49.92045 | 12.02660 | 18775 ft | 211 kts | 347° |
| 2026-04-10 15:26 | 49.93547 | 12.02807 | 18373 ft | 223 kts | 6° |
| 2026-04-10 15:26 | 49.95005 | 12.03785 | 17930 ft | 236 kts | 25° |
| 2026-04-10 15:27 | 49.96246 | 12.05536 | 17518 ft | 247 kts | 44° |
| 2026-04-10 15:27 | 49.97054 | 12.07847 | 17412 ft | 243 kts | 62° |
| 2026-04-10 15:27 | 49.97529 | 12.10636 | 15759 ft | 299 kts | 77° |
| 2026-04-10 15:27 | 49.97645 | 12.14173 | 13823 ft | 356 kts | 90° |
| 2026-04-10 15:28 | 49.97175 | 12.18219 | 11546 ft | 407 kts | 104° |
| 2026-04-10 15:28 | 49.96296 | 12.22660 | 10292 ft | 416 kts | 107° |
| 2026-04-10 15:28 | 49.95283 | 12.26734 | 9526 ft | 396 kts | 111° |
| 2026-04-10 15:28 | 49.94162 | 12.30512 | 8895 ft | 372 kts | 118° |